sensor_id;sensor_type;location;lat;lon;timestamp;P1;durP1;ratioP1;P2;durP2;ratioP2
17422;SDS011;8829;47.932;7.810;2022-10-12T00:00:17;15.40;;;9.97;;
17422;SDS011;8829;47.932;7.810;2022-10-12T00:02:44;18.10;;;10.47;;
17422;SDS011;8829;47.932;7.810;2022-10-12T00:05:10;18.20;;;11.70;;
17422;SDS011;8829;47.932;7.810;2022-10-12T00:07:37;17.33;;;11.20;;
17422;SDS011;8829;47.932;7.810;2022-10-12T00:10:06;20.27;;;12.00;;
17422;SDS011;8829;47.932;7.810;2022-10-12T00:12:33;17.47;;;11.53;;
17422;SDS011;8829;47.932;7.810;2022-10-12T00:14:59;15.90;;;11.70;;
17422;SDS011;8829;47.932;7.810;2022-10-12T00:17:26;13.90;;;10.67;;
17422;SDS011;8829;47.932;7.810;2022-10-12T00:19:53;21.83;;;10.40;;
17422;SDS011;8829;47.932;7.810;2022-10-12T00:22:22;14.70;;;10.27;;
17422;SDS011;8829;47.932;7.810;2022-10-12T00:24:49;12.60;;;8.43;;
17422;SDS011;8829;47.932;7.810;2022-10-12T00:27:18;7.43;;;6.70;;
17422;SDS011;8829;47.932;7.810;2022-10-12T00:29:45;9.20;;;6.80;;
17422;SDS011;8829;47.932;7.810;2022-10-12T00:32:12;9.63;;;7.67;;
17422;SDS011;8829;47.932;7.810;2022-10-12T00:34:39;11.43;;;7.23;;
17422;SDS011;8829;47.932;7.810;2022-10-12T00:37:05;7.90;;;6.90;;
17422;SDS011;8829;47.932;7.810;2022-10-12T00:39:32;8.37;;;7.57;;
17422;SDS011;8829;47.932;7.810;2022-10-12T00:41:59;11.70;;;8.07;;
17422;SDS011;8829;47.932;7.810;2022-10-12T00:44:34;8.97;;;7.37;;
17422;SDS011;8829;47.932;7.810;2022-10-12T00:47:04;9.87;;;7.17;;
17422;SDS011;8829;47.932;7.810;2022-10-12T00:49:38;14.03;;;9.87;;
17422;SDS011;8829;47.932;7.810;2022-10-12T00:52:06;11.87;;;8.43;;
17422;SDS011;8829;47.932;7.810;2022-10-12T00:54:40;16.20;;;9.20;;
17422;SDS011;8829;47.932;7.810;2022-10-12T00:57:11;14.27;;;8.80;;
17422;SDS011;8829;47.932;7.810;2022-10-12T00:59:43;13.93;;;8.50;;
17422;SDS011;8829;47.932;7.810;2022-10-12T01:02:15;12.67;;;7.87;;
17422;SDS011;8829;47.932;7.810;2022-10-12T01:04:42;24.17;;;9.40;;
17422;SDS011;8829;47.932;7.810;2022-10-12T01:07:10;16.33;;;8.33;;
17422;SDS011;8829;47.932;7.810;2022-10-12T01:09:37;14.87;;;9.23;;
17422;SDS011;8829;47.932;7.810;2022-10-12T01:12:04;17.80;;;9.70;;
17422;SDS011;8829;47.932;7.810;2022-10-12T01:14:33;21.27;;;8.83;;
17422;SDS011;8829;47.932;7.810;2022-10-12T01:17:02;16.43;;;8.20;;
17422;SDS011;8829;47.932;7.810;2022-10-12T01:22:43;17.50;;;9.23;;
17422;SDS011;8829;47.932;7.810;2022-10-12T01:25:18;15.30;;;9.37;;
17422;SDS011;8829;47.932;7.810;2022-10-12T01:28:01;16.17;;;9.23;;
17422;SDS011;8829;47.932;7.810;2022-10-12T01:30:42;15.87;;;8.43;;
17422;SDS011;8829;47.932;7.810;2022-10-12T01:33:16;16.10;;;9.47;;
17422;SDS011;8829;47.932;7.810;2022-10-12T01:35:52;17.83;;;8.47;;
17422;SDS011;8829;47.932;7.810;2022-10-12T01:38:31;11.90;;;8.13;;
17422;SDS011;8829;47.932;7.810;2022-10-12T01:41:05;10.57;;;7.43;;
17422;SDS011;8829;47.932;7.810;2022-10-12T01:43:37;16.23;;;8.97;;
17422;SDS011;8829;47.932;7.810;2022-10-12T01:49:07;14.47;;;9.63;;
17422;SDS011;8829;47.932;7.810;2022-10-12T01:51:35;12.83;;;9.83;;
17422;SDS011;8829;47.932;7.810;2022-10-12T01:54:13;16.17;;;9.17;;
17422;SDS011;8829;47.932;7.810;2022-10-12T01:56:52;13.97;;;8.47;;
17422;SDS011;8829;47.932;7.810;2022-10-12T01:59:30;11.63;;;8.67;;
17422;SDS011;8829;47.932;7.810;2022-10-12T02:02:02;10.63;;;7.63;;
17422;SDS011;8829;47.932;7.810;2022-10-12T02:04:42;10.40;;;7.30;;
17422;SDS011;8829;47.932;7.810;2022-10-12T02:07:14;15.00;;;8.40;;
17422;SDS011;8829;47.932;7.810;2022-10-12T02:09:45;11.27;;;8.20;;
17422;SDS011;8829;47.932;7.810;2022-10-12T02:12:14;11.23;;;7.97;;
17422;SDS011;8829;47.932;7.810;2022-10-12T02:14:44;11.07;;;7.97;;
17422;SDS011;8829;47.932;7.810;2022-10-12T02:17:14;10.50;;;7.43;;
17422;SDS011;8829;47.932;7.810;2022-10-12T02:19:46;9.17;;;7.37;;
17422;SDS011;8829;47.932;7.810;2022-10-12T02:22:15;10.53;;;7.13;;
17422;SDS011;8829;47.932;7.810;2022-10-12T02:24:44;9.83;;;7.30;;
17422;SDS011;8829;47.932;7.810;2022-10-12T02:27:14;13.13;;;7.57;;
17422;SDS011;8829;47.932;7.810;2022-10-12T02:29:43;10.27;;;7.90;;
17422;SDS011;8829;47.932;7.810;2022-10-12T02:32:13;11.47;;;8.30;;
17422;SDS011;8829;47.932;7.810;2022-10-12T02:34:46;11.53;;;7.63;;
17422;SDS011;8829;47.932;7.810;2022-10-12T02:37:20;11.43;;;8.30;;
17422;SDS011;8829;47.932;7.810;2022-10-12T02:39:57;8.77;;;7.00;;
17422;SDS011;8829;47.932;7.810;2022-10-12T02:42:34;11.47;;;7.23;;
17422;SDS011;8829;47.932;7.810;2022-10-12T02:45:05;12.00;;;8.00;;
17422;SDS011;8829;47.932;7.810;2022-10-12T02:47:35;11.83;;;7.87;;
17422;SDS011;8829;47.932;7.810;2022-10-12T02:50:05;13.17;;;8.33;;
17422;SDS011;8829;47.932;7.810;2022-10-12T02:52:34;12.63;;;8.87;;
17422;SDS011;8829;47.932;7.810;2022-10-12T02:55:01;12.27;;;8.60;;
17422;SDS011;8829;47.932;7.810;2022-10-12T02:57:28;13.60;;;9.27;;
17422;SDS011;8829;47.932;7.810;2022-10-12T02:59:55;15.43;;;9.10;;
17422;SDS011;8829;47.932;7.810;2022-10-12T03:02:23;11.60;;;7.13;;
17422;SDS011;8829;47.932;7.810;2022-10-12T03:04:49;10.30;;;6.67;;
17422;SDS011;8829;47.932;7.810;2022-10-12T03:07:19;9.23;;;7.10;;
17422;SDS011;8829;47.932;7.810;2022-10-12T03:09:45;12.13;;;5.93;;
17422;SDS011;8829;47.932;7.810;2022-10-12T03:12:12;12.03;;;5.47;;
17422;SDS011;8829;47.932;7.810;2022-10-12T03:14:39;18.60;;;5.43;;
17422;SDS011;8829;47.932;7.810;2022-10-12T03:17:06;14.17;;;5.73;;
17422;SDS011;8829;47.932;7.810;2022-10-12T03:19:33;14.10;;;6.13;;
17422;SDS011;8829;47.932;7.810;2022-10-12T03:21:59;17.57;;;6.90;;
17422;SDS011;8829;47.932;7.810;2022-10-12T03:24:28;15.40;;;6.70;;
17422;SDS011;8829;47.932;7.810;2022-10-12T03:26:54;19.53;;;6.10;;
17422;SDS011;8829;47.932;7.810;2022-10-12T03:29:21;16.67;;;7.23;;
17422;SDS011;8829;47.932;7.810;2022-10-12T03:31:48;20.57;;;6.90;;
17422;SDS011;8829;47.932;7.810;2022-10-12T03:34:14;21.63;;;6.77;;
17422;SDS011;8829;47.932;7.810;2022-10-12T03:36:41;16.60;;;6.50;;
17422;SDS011;8829;47.932;7.810;2022-10-12T03:39:09;20.23;;;6.77;;
17422;SDS011;8829;47.932;7.810;2022-10-12T03:41:37;21.33;;;7.07;;
17422;SDS011;8829;47.932;7.810;2022-10-12T03:44:04;19.73;;;7.67;;
17422;SDS011;8829;47.932;7.810;2022-10-12T03:46:31;17.30;;;7.93;;
17422;SDS011;8829;47.932;7.810;2022-10-12T03:48:57;27.83;;;7.90;;
17422;SDS011;8829;47.932;7.810;2022-10-12T03:51:24;29.27;;;7.40;;
17422;SDS011;8829;47.932;7.810;2022-10-12T03:53:51;24.23;;;7.57;;
17422;SDS011;8829;47.932;7.810;2022-10-12T03:56:18;25.00;;;9.23;;
17422;SDS011;8829;47.932;7.810;2022-10-12T03:58:46;25.50;;;9.53;;
17422;SDS011;8829;47.932;7.810;2022-10-12T04:01:13;35.70;;;10.57;;
17422;SDS011;8829;47.932;7.810;2022-10-12T04:03:40;29.67;;;10.90;;
17422;SDS011;8829;47.932;7.810;2022-10-12T04:06:06;39.80;;;11.50;;
17422;SDS011;8829;47.932;7.810;2022-10-12T04:08:33;30.20;;;9.57;;
17422;SDS011;8829;47.932;7.810;2022-10-12T04:11:00;35.93;;;11.60;;
17422;SDS011;8829;47.932;7.810;2022-10-12T04:13:26;41.27;;;11.80;;
17422;SDS011;8829;47.932;7.810;2022-10-12T04:15:55;38.27;;;10.90;;
17422;SDS011;8829;47.932;7.810;2022-10-12T04:18:26;39.47;;;12.33;;
17422;SDS011;8829;47.932;7.810;2022-10-12T04:20:52;26.93;;;10.63;;
17422;SDS011;8829;47.932;7.810;2022-10-12T04:23:19;40.37;;;11.40;;
17422;SDS011;8829;47.932;7.810;2022-10-12T04:25:46;45.23;;;12.13;;
17422;SDS011;8829;47.932;7.810;2022-10-12T04:28:13;45.77;;;12.60;;
17422;SDS011;8829;47.932;7.810;2022-10-12T04:30:39;33.77;;;12.87;;
17422;SDS011;8829;47.932;7.810;2022-10-12T04:33:07;37.73;;;13.10;;
17422;SDS011;8829;47.932;7.810;2022-10-12T04:35:34;35.70;;;12.53;;
17422;SDS011;8829;47.932;7.810;2022-10-12T04:38:01;31.40;;;13.00;;
17422;SDS011;8829;47.932;7.810;2022-10-12T04:40:28;29.87;;;13.23;;
17422;SDS011;8829;47.932;7.810;2022-10-12T04:42:55;22.97;;;12.83;;
17422;SDS011;8829;47.932;7.810;2022-10-12T04:45:22;17.07;;;11.40;;
17422;SDS011;8829;47.932;7.810;2022-10-12T04:47:52;14.27;;;10.50;;
17422;SDS011;8829;47.932;7.810;2022-10-12T04:50:20;22.27;;;12.33;;
17422;SDS011;8829;47.932;7.810;2022-10-12T04:52:47;16.23;;;10.87;;
17422;SDS011;8829;47.932;7.810;2022-10-12T04:55:14;15.07;;;10.53;;
17422;SDS011;8829;47.932;7.810;2022-10-12T04:57:40;12.30;;;9.87;;
17422;SDS011;8829;47.932;7.810;2022-10-12T05:00:08;15.73;;;10.43;;
17422;SDS011;8829;47.932;7.810;2022-10-12T05:02:35;16.13;;;10.40;;
17422;SDS011;8829;47.932;7.810;2022-10-12T05:05:02;11.87;;;9.27;;
17422;SDS011;8829;47.932;7.810;2022-10-12T05:07:31;20.30;;;8.23;;
17422;SDS011;8829;47.932;7.810;2022-10-12T05:09:58;15.63;;;10.43;;
17422;SDS011;8829;47.932;7.810;2022-10-12T05:12:25;13.27;;;8.67;;
17422;SDS011;8829;47.932;7.810;2022-10-12T05:14:51;13.67;;;9.50;;
17422;SDS011;8829;47.932;7.810;2022-10-12T05:17:18;33.33;;;10.33;;
17422;SDS011;8829;47.932;7.810;2022-10-12T05:19:45;31.10;;;11.87;;
17422;SDS011;8829;47.932;7.810;2022-10-12T05:22:11;31.47;;;11.90;;
17422;SDS011;8829;47.932;7.810;2022-10-12T05:24:39;45.10;;;12.67;;
17422;SDS011;8829;47.932;7.810;2022-10-12T05:27:06;21.00;;;12.87;;
17422;SDS011;8829;47.932;7.810;2022-10-12T05:29:33;11.13;;;8.33;;
17422;SDS011;8829;47.932;7.810;2022-10-12T05:31:59;7.97;;;7.00;;
17422;SDS011;8829;47.932;7.810;2022-10-12T05:34:26;8.77;;;6.50;;
17422;SDS011;8829;47.932;7.810;2022-10-12T05:36:53;7.93;;;6.60;;
17422;SDS011;8829;47.932;7.810;2022-10-12T05:39:22;6.23;;;5.63;;
17422;SDS011;8829;47.932;7.810;2022-10-12T05:41:50;9.60;;;7.00;;
17422;SDS011;8829;47.932;7.810;2022-10-12T05:44:18;9.00;;;5.50;;
17422;SDS011;8829;47.932;7.810;2022-10-12T05:46:45;9.60;;;5.70;;
17422;SDS011;8829;47.932;7.810;2022-10-12T05:49:11;10.97;;;6.67;;
17422;SDS011;8829;47.932;7.810;2022-10-12T05:51:38;8.97;;;6.23;;
17422;SDS011;8829;47.932;7.810;2022-10-12T05:54:05;10.40;;;7.00;;
17422;SDS011;8829;47.932;7.810;2022-10-12T05:56:32;9.00;;;6.83;;
17422;SDS011;8829;47.932;7.810;2022-10-12T05:59:01;9.70;;;6.57;;
17422;SDS011;8829;47.932;7.810;2022-10-12T06:01:28;9.80;;;6.67;;
17422;SDS011;8829;47.932;7.810;2022-10-12T06:03:55;11.83;;;7.87;;
17422;SDS011;8829;47.932;7.810;2022-10-12T06:06:22;9.47;;;6.83;;
17422;SDS011;8829;47.932;7.810;2022-10-12T06:08:50;9.47;;;6.90;;
17422;SDS011;8829;47.932;7.810;2022-10-12T06:11:17;10.33;;;5.83;;
17422;SDS011;8829;47.932;7.810;2022-10-12T06:13:43;11.60;;;7.27;;
17422;SDS011;8829;47.932;7.810;2022-10-12T06:16:11;6.77;;;5.70;;
17422;SDS011;8829;47.932;7.810;2022-10-12T06:18:38;8.43;;;5.87;;
17422;SDS011;8829;47.932;7.810;2022-10-12T06:21:05;5.37;;;4.87;;
17422;SDS011;8829;47.932;7.810;2022-10-12T06:23:32;6.53;;;4.70;;
17422;SDS011;8829;47.932;7.810;2022-10-12T06:25:58;5.00;;;4.30;;
17422;SDS011;8829;47.932;7.810;2022-10-12T06:28:26;5.20;;;3.90;;
17422;SDS011;8829;47.932;7.810;2022-10-12T06:30:53;6.57;;;4.47;;
17422;SDS011;8829;47.932;7.810;2022-10-12T06:33:22;4.60;;;4.20;;
17422;SDS011;8829;47.932;7.810;2022-10-12T06:35:49;7.13;;;4.70;;
17422;SDS011;8829;47.932;7.810;2022-10-12T06:38:16;5.07;;;4.67;;
17422;SDS011;8829;47.932;7.810;2022-10-12T06:40:43;7.00;;;5.60;;
17422;SDS011;8829;47.932;7.810;2022-10-12T06:43:09;5.90;;;5.17;;
17422;SDS011;8829;47.932;7.810;2022-10-12T06:45:36;5.37;;;4.87;;
17422;SDS011;8829;47.932;7.810;2022-10-12T06:48:05;7.40;;;5.90;;
17422;SDS011;8829;47.932;7.810;2022-10-12T06:50:34;9.00;;;6.43;;
17422;SDS011;8829;47.932;7.810;2022-10-12T06:53:00;10.70;;;6.77;;
17422;SDS011;8829;47.932;7.810;2022-10-12T06:55:27;10.13;;;7.10;;
17422;SDS011;8829;47.932;7.810;2022-10-12T06:57:56;10.00;;;6.57;;
17422;SDS011;8829;47.932;7.810;2022-10-12T07:00:22;13.50;;;7.03;;
17422;SDS011;8829;47.932;7.810;2022-10-12T07:02:49;10.70;;;7.13;;
17422;SDS011;8829;47.932;7.810;2022-10-12T07:05:17;10.53;;;7.50;;
17422;SDS011;8829;47.932;7.810;2022-10-12T07:07:46;11.07;;;7.27;;
17422;SDS011;8829;47.932;7.810;2022-10-12T07:10:13;17.47;;;7.23;;
17422;SDS011;8829;47.932;7.810;2022-10-12T07:12:39;11.37;;;7.00;;
17422;SDS011;8829;47.932;7.810;2022-10-12T07:15:07;13.40;;;7.73;;
17422;SDS011;8829;47.932;7.810;2022-10-12T07:17:34;13.13;;;7.70;;
17422;SDS011;8829;47.932;7.810;2022-10-12T07:20:01;9.37;;;7.23;;
17422;SDS011;8829;47.932;7.810;2022-10-12T07:22:29;9.80;;;6.87;;
17422;SDS011;8829;47.932;7.810;2022-10-12T07:24:57;8.97;;;6.63;;
17422;SDS011;8829;47.932;7.810;2022-10-12T07:27:24;10.80;;;7.37;;
17422;SDS011;8829;47.932;7.810;2022-10-12T07:29:50;8.17;;;6.70;;
17422;SDS011;8829;47.932;7.810;2022-10-12T07:32:18;11.70;;;7.53;;
17422;SDS011;8829;47.932;7.810;2022-10-12T07:34:45;8.03;;;5.83;;
17422;SDS011;8829;47.932;7.810;2022-10-12T07:37:11;8.97;;;6.37;;
17422;SDS011;8829;47.932;7.810;2022-10-12T07:39:39;6.60;;;5.90;;
17422;SDS011;8829;47.932;7.810;2022-10-12T07:42:08;6.90;;;5.13;;
17422;SDS011;8829;47.932;7.810;2022-10-12T07:44:35;6.93;;;4.70;;
17422;SDS011;8829;47.932;7.810;2022-10-12T07:47:01;7.70;;;4.27;;
17422;SDS011;8829;47.932;7.810;2022-10-12T07:49:28;7.70;;;4.67;;
17422;SDS011;8829;47.932;7.810;2022-10-12T07:51:56;9.10;;;5.10;;
17422;SDS011;8829;47.932;7.810;2022-10-12T07:54:23;6.77;;;4.80;;
17422;SDS011;8829;47.932;7.810;2022-10-12T07:56:50;6.87;;;5.07;;
17422;SDS011;8829;47.932;7.810;2022-10-12T07:59:18;7.53;;;5.00;;
17422;SDS011;8829;47.932;7.810;2022-10-12T08:01:44;5.77;;;4.83;;
17422;SDS011;8829;47.932;7.810;2022-10-12T08:04:11;5.30;;;4.80;;
17422;SDS011;8829;47.932;7.810;2022-10-12T08:06:40;4.60;;;4.10;;
17422;SDS011;8829;47.932;7.810;2022-10-12T08:09:07;6.87;;;4.60;;
17422;SDS011;8829;47.932;7.810;2022-10-12T08:11:39;5.00;;;4.30;;
17422;SDS011;8829;47.932;7.810;2022-10-12T08:14:06;5.23;;;4.73;;
17422;SDS011;8829;47.932;7.810;2022-10-12T08:16:38;9.47;;;5.97;;
17422;SDS011;8829;47.932;7.810;2022-10-12T08:19:05;5.53;;;5.03;;
17422;SDS011;8829;47.932;7.810;2022-10-12T08:21:32;10.07;;;5.83;;
17422;SDS011;8829;47.932;7.810;2022-10-12T08:23:59;7.50;;;5.90;;
17422;SDS011;8829;47.932;7.810;2022-10-12T08:26:26;6.60;;;5.80;;
17422;SDS011;8829;47.932;7.810;2022-10-12T08:28:53;7.63;;;6.00;;
17422;SDS011;8829;47.932;7.810;2022-10-12T08:31:20;6.70;;;5.43;;
17422;SDS011;8829;47.932;7.810;2022-10-12T08:33:48;8.70;;;5.53;;
17422;SDS011;8829;47.932;7.810;2022-10-12T08:36:14;6.57;;;5.87;;
17422;SDS011;8829;47.932;7.810;2022-10-12T08:38:41;6.70;;;6.10;;
17422;SDS011;8829;47.932;7.810;2022-10-12T08:41:12;6.50;;;5.80;;
17422;SDS011;8829;47.932;7.810;2022-10-12T08:43:55;9.00;;;6.33;;
17422;SDS011;8829;47.932;7.810;2022-10-12T08:46:32;9.33;;;6.53;;
17422;SDS011;8829;47.932;7.810;2022-10-12T08:49:02;6.10;;;5.27;;
17422;SDS011;8829;47.932;7.810;2022-10-12T08:51:32;5.20;;;4.70;;
17422;SDS011;8829;47.932;7.810;2022-10-12T08:54:12;8.53;;;5.57;;
17422;SDS011;8829;47.932;7.810;2022-10-12T08:56:40;6.27;;;5.67;;
17422;SDS011;8829;47.932;7.810;2022-10-12T08:59:08;8.13;;;5.73;;
17422;SDS011;8829;47.932;7.810;2022-10-12T09:01:38;6.30;;;5.13;;
17422;SDS011;8829;47.932;7.810;2022-10-12T09:04:22;6.03;;;5.17;;
17422;SDS011;8829;47.932;7.810;2022-10-12T09:07:03;8.33;;;5.47;;
17422;SDS011;8829;47.932;7.810;2022-10-12T09:09:38;5.33;;;4.83;;
17422;SDS011;8829;47.932;7.810;2022-10-12T09:12:17;5.67;;;4.80;;
17422;SDS011;8829;47.932;7.810;2022-10-12T09:14:55;15.40;;;6.93;;
17422;SDS011;8829;47.932;7.810;2022-10-12T09:17:27;7.90;;;6.53;;
17422;SDS011;8829;47.932;7.810;2022-10-12T09:20:04;6.30;;;5.70;;
17422;SDS011;8829;47.932;7.810;2022-10-12T09:22:40;5.63;;;5.03;;
17422;SDS011;8829;47.932;7.810;2022-10-12T09:25:13;8.50;;;6.03;;
17422;SDS011;8829;47.932;7.810;2022-10-12T09:27:41;9.13;;;6.77;;
17422;SDS011;8829;47.932;7.810;2022-10-12T09:30:11;10.17;;;6.60;;
17422;SDS011;8829;47.932;7.810;2022-10-12T09:32:42;12.17;;;7.17;;
17422;SDS011;8829;47.932;7.810;2022-10-12T09:35:32;13.53;;;7.47;;
17422;SDS011;8829;47.932;7.810;2022-10-12T09:37:59;12.20;;;7.33;;
17422;SDS011;8829;47.932;7.810;2022-10-12T09:40:28;13.17;;;7.50;;
17422;SDS011;8829;47.932;7.810;2022-10-12T09:42:56;17.17;;;8.37;;
17422;SDS011;8829;47.932;7.810;2022-10-12T09:45:25;11.43;;;7.73;;
17422;SDS011;8829;47.932;7.810;2022-10-12T09:48:09;14.47;;;8.73;;
17422;SDS011;8829;47.932;7.810;2022-10-12T09:50:39;18.63;;;9.17;;
17422;SDS011;8829;47.932;7.810;2022-10-12T09:53:12;17.00;;;9.70;;
17422;SDS011;8829;47.932;7.810;2022-10-12T09:55:50;23.87;;;8.90;;
17422;SDS011;8829;47.932;7.810;2022-10-12T09:58:20;19.83;;;9.27;;
17422;SDS011;8829;47.932;7.810;2022-10-12T10:03:36;14.63;;;8.77;;
17422;SDS011;8829;47.932;7.810;2022-10-12T10:06:04;19.50;;;8.80;;
17422;SDS011;8829;47.932;7.810;2022-10-12T10:08:38;19.97;;;10.07;;
17422;SDS011;8829;47.932;7.810;2022-10-12T10:11:10;22.97;;;10.23;;
17422;SDS011;8829;47.932;7.810;2022-10-12T10:13:43;14.47;;;9.97;;
17422;SDS011;8829;47.932;7.810;2022-10-12T10:16:13;16.33;;;9.83;;
17422;SDS011;8829;47.932;7.810;2022-10-12T10:18:41;17.53;;;9.83;;
17422;SDS011;8829;47.932;7.810;2022-10-12T10:21:13;16.47;;;10.30;;
17422;SDS011;8829;47.932;7.810;2022-10-12T10:23:42;18.23;;;10.33;;
17422;SDS011;8829;47.932;7.810;2022-10-12T10:26:16;17.27;;;10.30;;
17422;SDS011;8829;47.932;7.810;2022-10-12T10:28:46;17.73;;;10.47;;
17422;SDS011;8829;47.932;7.810;2022-10-12T10:31:18;15.77;;;10.07;;
17422;SDS011;8829;47.932;7.810;2022-10-12T10:34:02;12.30;;;8.40;;
17422;SDS011;8829;47.932;7.810;2022-10-12T10:36:37;16.30;;;8.23;;
17422;SDS011;8829;47.932;7.810;2022-10-12T10:39:13;12.67;;;7.57;;
17422;SDS011;8829;47.932;7.810;2022-10-12T10:41:43;12.70;;;7.87;;
17422;SDS011;8829;47.932;7.810;2022-10-12T10:44:18;12.47;;;7.70;;
17422;SDS011;8829;47.932;7.810;2022-10-12T10:46:53;13.23;;;7.37;;
17422;SDS011;8829;47.932;7.810;2022-10-12T10:49:24;11.50;;;7.07;;
17422;SDS011;8829;47.932;7.810;2022-10-12T10:52:03;13.13;;;8.40;;
17422;SDS011;8829;47.932;7.810;2022-10-12T10:54:33;16.07;;;7.80;;
17422;SDS011;8829;47.932;7.810;2022-10-12T10:57:03;11.70;;;7.20;;
17422;SDS011;8829;47.932;7.810;2022-10-12T10:59:43;8.33;;;6.63;;
17422;SDS011;8829;47.932;7.810;2022-10-12T11:02:15;12.13;;;6.63;;
17422;SDS011;8829;47.932;7.810;2022-10-12T11:04:48;14.73;;;8.13;;
17422;SDS011;8829;47.932;7.810;2022-10-12T11:07:20;13.43;;;6.80;;
17422;SDS011;8829;47.932;7.810;2022-10-12T11:09:53;14.57;;;7.90;;
17422;SDS011;8829;47.932;7.810;2022-10-12T11:12:23;11.93;;;6.30;;
17422;SDS011;8829;47.932;7.810;2022-10-12T11:14:54;13.07;;;7.30;;
17422;SDS011;8829;47.932;7.810;2022-10-12T11:17:26;10.03;;;6.77;;
17422;SDS011;8829;47.932;7.810;2022-10-12T11:19:57;12.53;;;7.07;;
17422;SDS011;8829;47.932;7.810;2022-10-12T11:22:33;13.73;;;6.83;;
17422;SDS011;8829;47.932;7.810;2022-10-12T11:25:07;8.03;;;5.50;;
17422;SDS011;8829;47.932;7.810;2022-10-12T11:27:40;8.17;;;5.80;;
17422;SDS011;8829;47.932;7.810;2022-10-12T11:30:11;10.83;;;6.30;;
17422;SDS011;8829;47.932;7.810;2022-10-12T11:32:40;9.13;;;6.20;;
17422;SDS011;8829;47.932;7.810;2022-10-12T11:35:12;14.80;;;6.40;;
17422;SDS011;8829;47.932;7.810;2022-10-12T11:37:46;11.83;;;6.43;;
17422;SDS011;8829;47.932;7.810;2022-10-12T11:40:20;9.93;;;6.63;;
17422;SDS011;8829;47.932;7.810;2022-10-12T11:42:50;11.50;;;6.20;;
17422;SDS011;8829;47.932;7.810;2022-10-12T11:45:19;12.27;;;5.97;;
17422;SDS011;8829;47.932;7.810;2022-10-12T11:47:51;9.87;;;5.77;;
17422;SDS011;8829;47.932;7.810;2022-10-12T11:50:23;14.63;;;6.37;;
17422;SDS011;8829;47.932;7.810;2022-10-12T11:52:56;14.23;;;6.17;;
17422;SDS011;8829;47.932;7.810;2022-10-12T11:55:29;13.20;;;6.70;;
17422;SDS011;8829;47.932;7.810;2022-10-12T11:58:07;8.90;;;6.67;;
17422;SDS011;8829;47.932;7.810;2022-10-12T12:00:41;10.27;;;6.83;;
17422;SDS011;8829;47.932;7.810;2022-10-12T12:03:21;13.67;;;7.07;;
17422;SDS011;8829;47.932;7.810;2022-10-12T12:05:53;14.87;;;7.00;;
17422;SDS011;8829;47.932;7.810;2022-10-12T12:08:22;13.73;;;7.90;;
17422;SDS011;8829;47.932;7.810;2022-10-12T12:11:24;10.60;;;8.47;;
17422;SDS011;8829;47.932;7.810;2022-10-12T12:17:08;9.87;;;6.40;;
17422;SDS011;8829;47.932;7.810;2022-10-12T12:19:45;13.90;;;7.17;;
17422;SDS011;8829;47.932;7.810;2022-10-12T12:22:21;10.67;;;6.67;;
17422;SDS011;8829;47.932;7.810;2022-10-12T12:25:18;9.50;;;6.63;;
17422;SDS011;8829;47.932;7.810;2022-10-12T12:27:51;8.10;;;6.23;;
17422;SDS011;8829;47.932;7.810;2022-10-12T12:30:30;13.27;;;7.13;;
17422;SDS011;8829;47.932;7.810;2022-10-12T12:33:00;13.37;;;8.47;;
17422;SDS011;8829;47.932;7.810;2022-10-12T12:35:31;10.87;;;6.87;;
17422;SDS011;8829;47.932;7.810;2022-10-12T12:38:03;10.63;;;6.83;;
17422;SDS011;8829;47.932;7.810;2022-10-12T12:40:34;13.43;;;6.97;;
17422;SDS011;8829;47.932;7.810;2022-10-12T12:43:21;12.20;;;7.63;;
17422;SDS011;8829;47.932;7.810;2022-10-12T12:46:03;12.47;;;7.53;;
17422;SDS011;8829;47.932;7.810;2022-10-12T12:51:22;12.77;;;7.50;;
17422;SDS011;8829;47.932;7.810;2022-10-12T12:53:51;10.60;;;7.43;;
17422;SDS011;8829;47.932;7.810;2022-10-12T12:56:26;9.40;;;6.63;;
17422;SDS011;8829;47.932;7.810;2022-10-12T12:59:03;15.43;;;7.67;;
17422;SDS011;8829;47.932;7.810;2022-10-12T13:01:49;11.77;;;7.80;;
17422;SDS011;8829;47.932;7.810;2022-10-12T13:04:30;11.83;;;7.57;;
17422;SDS011;8829;47.932;7.810;2022-10-12T13:07:14;11.33;;;7.30;;
17422;SDS011;8829;47.932;7.810;2022-10-12T13:10:21;11.27;;;8.00;;
17422;SDS011;8829;47.932;7.810;2022-10-12T13:13:06;13.83;;;7.23;;
17422;SDS011;8829;47.932;7.810;2022-10-12T13:15:51;9.43;;;7.63;;
17422;SDS011;8829;47.932;7.810;2022-10-12T13:18:31;12.17;;;6.50;;
17422;SDS011;8829;47.932;7.810;2022-10-12T13:21:23;11.20;;;6.80;;
17422;SDS011;8829;47.932;7.810;2022-10-12T13:23:55;11.77;;;6.87;;
17422;SDS011;8829;47.932;7.810;2022-10-12T13:26:29;12.07;;;7.30;;
17422;SDS011;8829;47.932;7.810;2022-10-12T13:29:00;15.10;;;7.17;;
17422;SDS011;8829;47.932;7.810;2022-10-12T13:31:33;13.20;;;7.67;;
17422;SDS011;8829;47.932;7.810;2022-10-12T13:34:05;10.20;;;7.47;;
17422;SDS011;8829;47.932;7.810;2022-10-12T13:36:45;11.37;;;6.97;;
17422;SDS011;8829;47.932;7.810;2022-10-12T13:39:17;14.77;;;8.03;;
17422;SDS011;8829;47.932;7.810;2022-10-12T13:41:47;12.30;;;6.90;;
17422;SDS011;8829;47.932;7.810;2022-10-12T13:44:19;12.93;;;6.67;;
17422;SDS011;8829;47.932;7.810;2022-10-12T13:46:49;13.73;;;7.87;;
17422;SDS011;8829;47.932;7.810;2022-10-12T13:49:20;9.67;;;6.83;;
17422;SDS011;8829;47.932;7.810;2022-10-12T13:51:51;11.43;;;6.57;;
17422;SDS011;8829;47.932;7.810;2022-10-12T13:54:20;10.27;;;7.17;;
17422;SDS011;8829;47.932;7.810;2022-10-12T13:56:50;9.60;;;6.90;;
17422;SDS011;8829;47.932;7.810;2022-10-12T13:59:21;11.90;;;7.00;;
17422;SDS011;8829;47.932;7.810;2022-10-12T14:01:51;10.00;;;6.23;;
17422;SDS011;8829;47.932;7.810;2022-10-12T14:04:20;12.10;;;6.73;;
17422;SDS011;8829;47.932;7.810;2022-10-12T14:06:51;10.23;;;7.17;;
17422;SDS011;8829;47.932;7.810;2022-10-12T14:09:24;10.10;;;7.53;;
17422;SDS011;8829;47.932;7.810;2022-10-12T14:11:53;8.23;;;6.33;;
17422;SDS011;8829;47.932;7.810;2022-10-12T14:14:25;10.77;;;6.93;;
17422;SDS011;8829;47.932;7.810;2022-10-12T14:16:56;11.73;;;6.67;;
17422;SDS011;8829;47.932;7.810;2022-10-12T14:19:40;14.30;;;6.83;;
17422;SDS011;8829;47.932;7.810;2022-10-12T14:22:09;10.13;;;6.80;;
17422;SDS011;8829;47.932;7.810;2022-10-12T14:24:37;11.90;;;6.87;;
17422;SDS011;8829;47.932;7.810;2022-10-12T14:27:05;8.10;;;6.53;;
17422;SDS011;8829;47.932;7.810;2022-10-12T14:29:35;11.63;;;6.47;;
17422;SDS011;8829;47.932;7.810;2022-10-12T14:32:24;12.17;;;7.33;;
17422;SDS011;8829;47.932;7.810;2022-10-12T14:35:12;15.30;;;6.70;;
17422;SDS011;8829;47.932;7.810;2022-10-12T14:37:47;11.67;;;6.40;;
17422;SDS011;8829;47.932;7.810;2022-10-12T14:43:05;8.63;;;6.77;;
17422;SDS011;8829;47.932;7.810;2022-10-12T14:45:46;13.63;;;6.30;;
17422;SDS011;8829;47.932;7.810;2022-10-12T14:48:15;12.97;;;6.27;;
17422;SDS011;8829;47.932;7.810;2022-10-12T14:50:44;11.57;;;6.23;;
17422;SDS011;8829;47.932;7.810;2022-10-12T14:53:12;15.10;;;7.37;;
17422;SDS011;8829;47.932;7.810;2022-10-12T14:55:40;8.57;;;5.80;;
17422;SDS011;8829;47.932;7.810;2022-10-12T14:58:10;7.90;;;6.27;;
17422;SDS011;8829;47.932;7.810;2022-10-12T15:00:40;10.60;;;6.77;;
17422;SDS011;8829;47.932;7.810;2022-10-12T15:03:09;8.67;;;7.27;;
17422;SDS011;8829;47.932;7.810;2022-10-12T15:05:36;11.80;;;7.17;;
17422;SDS011;8829;47.932;7.810;2022-10-12T15:08:03;11.60;;;8.43;;
17422;SDS011;8829;47.932;7.810;2022-10-12T15:10:32;12.20;;;8.13;;
17422;SDS011;8829;47.932;7.810;2022-10-12T15:13:00;11.17;;;7.63;;
17422;SDS011;8829;47.932;7.810;2022-10-12T15:15:31;13.53;;;7.57;;
17422;SDS011;8829;47.932;7.810;2022-10-12T15:18:01;13.17;;;8.30;;
17422;SDS011;8829;47.932;7.810;2022-10-12T15:20:29;15.70;;;8.17;;
17422;SDS011;8829;47.932;7.810;2022-10-12T15:22:57;12.93;;;7.73;;
17422;SDS011;8829;47.932;7.810;2022-10-12T15:25:25;16.53;;;7.47;;
17422;SDS011;8829;47.932;7.810;2022-10-12T15:28:02;17.10;;;12.63;;